createdAt,value
2019-02-02T00:00:42.110Z,20.97
2019-02-02T00:03:10.841Z,19.17
2019-02-02T00:05:39.255Z,16.82
2019-02-02T00:08:07.847Z,16.62
2019-02-02T00:10:37.780Z,18.55
2019-02-02T00:13:06.176Z,14.20
2019-02-02T00:15:34.622Z,13.75
2019-02-02T00:18:03.164Z,15.15
2019-02-02T00:20:31.565Z,14.40
2019-02-02T00:23:00.131Z,14.28
2019-02-02T00:25:28.602Z,16.52
2019-02-02T00:27:57.009Z,16.95
2019-02-02T00:30:25.503Z,18.57
2019-02-02T00:32:54.039Z,18.52
2019-02-02T00:35:22.516Z,17.80
2019-02-02T00:37:50.948Z,13.48
2019-02-02T00:40:20.081Z,15.63
2019-02-02T00:42:49.803Z,12.60
2019-02-02T00:45:24.156Z,15.48
2019-02-02T00:47:53.102Z,18.12
2019-02-02T00:50:23.556Z,19.00
2019-02-02T00:52:52.763Z,14.13
2019-02-02T00:55:21.254Z,16.25
2019-02-02T00:57:53.845Z,17.35
2019-02-02T01:00:21.349Z,14.13
2019-02-02T01:02:50.116Z,12.10
2019-02-02T01:05:20.166Z,12.68
2019-02-02T01:07:48.700Z,16.87
2019-02-02T01:10:26.462Z,18.85
2019-02-02T01:13:14.397Z,19.05
2019-02-02T01:15:42.863Z,20.10
2019-02-02T01:18:11.332Z,18.65
2019-02-02T01:20:39.963Z,15.65
2019-02-02T01:23:08.440Z,13.45
2019-02-02T01:25:36.908Z,9.90
2019-02-02T01:28:05.792Z,9.20
2019-02-02T01:30:34.465Z,9.18
2019-02-02T01:33:02.905Z,8.15
2019-02-02T01:35:31.404Z,8.20
2019-02-02T01:37:59.884Z,9.43
2019-02-02T01:40:28.331Z,8.18
2019-02-02T01:42:56.824Z,8.78
2019-02-02T01:45:26.405Z,8.40
2019-02-02T01:47:55.230Z,10.20
2019-02-02T01:50:27.896Z,8.75
2019-02-02T01:52:57.294Z,8.88
2019-02-02T01:55:25.760Z,11.85
2019-02-02T01:57:54.279Z,10.75
2019-02-02T02:00:28.748Z,9.70
2019-02-02T02:02:57.226Z,9.78
2019-02-02T02:05:25.805Z,8.43
2019-02-02T02:07:54.193Z,9.53
2019-02-02T02:10:22.658Z,9.05
2019-02-02T02:12:51.089Z,10.72
2019-02-02T02:15:20.080Z,9.23
2019-02-02T02:17:48.493Z,8.23
2019-02-02T02:20:18.661Z,7.10
2019-02-02T02:22:48.196Z,7.47
2019-02-02T02:25:21.128Z,8.23
2019-02-02T02:27:50.097Z,6.97
2019-02-02T02:30:23.499Z,7.47
2019-02-02T02:32:52.534Z,8.75
2019-02-02T02:35:21.062Z,8.38
2019-02-02T02:37:49.450Z,8.63
2019-02-02T02:40:24.408Z,8.73
2019-02-02T02:42:53.149Z,8.43
2019-02-02T02:45:21.825Z,7.35
2019-02-02T02:47:50.388Z,8.93
2019-02-02T02:50:20.370Z,8.75
2019-02-02T02:52:48.775Z,9.15
2019-02-02T02:55:29.204Z,9.43
2019-02-02T02:57:57.607Z,10.78
2019-02-02T03:00:30.101Z,12.60
2019-02-02T03:05:26.373Z,11.22
2019-02-02T03:07:55.218Z,12.05
2019-02-02T03:10:26.840Z,10.75
2019-02-02T03:12:55.306Z,10.68
2019-02-02T03:15:23.835Z,9.70
2019-02-02T03:17:52.496Z,9.35
2019-02-02T03:20:20.949Z,9.95
2019-02-02T03:22:49.368Z,8.28
2019-02-02T03:25:23.231Z,8.28
2019-02-02T03:27:51.625Z,8.55
2019-02-02T03:30:20.877Z,8.35
2019-02-02T03:32:49.369Z,8.33
2019-02-02T03:35:23.148Z,8.65
2019-02-02T03:37:51.988Z,10.80
2019-02-02T03:40:22.371Z,11.10
2019-02-02T03:42:50.826Z,10.05
2019-02-02T03:45:21.817Z,10.38
2019-02-02T03:47:50.884Z,9.88
2019-02-02T03:50:19.273Z,9.95
2019-02-02T03:52:47.749Z,10.48
2019-02-02T03:55:16.483Z,9.93
2019-02-02T03:57:45.906Z,9.60
2019-02-02T04:00:17.106Z,9.35
2019-02-02T04:02:45.939Z,10.13
2019-02-02T04:05:20.171Z,10.20
2019-02-02T04:07:48.643Z,10.30
2019-02-02T04:10:17.138Z,9.95
2019-02-02T04:12:45.527Z,12.50
2019-02-02T04:15:16.174Z,9.65
2019-02-02T04:17:44.644Z,10.63
2019-02-02T04:20:17.972Z,9.25
2019-02-02T04:22:46.365Z,9.78
2019-02-02T04:25:15.065Z,8.88
2019-02-02T04:27:43.624Z,9.00
2019-02-02T04:30:26.511Z,9.88
2019-02-02T04:32:54.975Z,9.25
2019-02-02T04:35:23.708Z,9.53
2019-02-02T04:37:52.213Z,10.43
2019-02-02T04:40:20.673Z,11.60
2019-02-02T04:42:49.151Z,10.00
2019-02-02T04:45:18.187Z,9.90
2019-02-02T04:47:46.575Z,9.48
2019-02-02T04:50:16.921Z,10.75
2019-02-02T04:52:45.392Z,11.33
2019-02-02T04:55:15.254Z,10.75
2019-02-02T04:57:43.634Z,10.78
2019-02-02T05:00:25.271Z,10.18
2019-02-02T05:02:53.693Z,9.98
2019-02-02T05:05:22.247Z,10.23
2019-02-02T05:07:50.745Z,12.50
2019-02-02T05:10:23.619Z,12.63
2019-02-02T05:12:52.566Z,12.25
2019-02-02T05:15:21.348Z,12.33
2019-02-02T05:17:49.893Z,11.78
2019-02-02T05:20:19.519Z,11.70
2019-02-02T05:22:48.025Z,11.88
2019-02-02T05:25:16.742Z,12.00
2019-02-02T05:27:45.140Z,13.35
2019-02-02T05:30:19.703Z,11.88
2019-02-02T05:32:48.102Z,12.23
2019-02-02T05:35:16.569Z,11.63
2019-02-02T05:37:45.059Z,12.58
2019-02-02T05:40:15.806Z,12.15
2019-02-02T05:42:44.203Z,13.22
2019-02-02T05:45:15.735Z,12.60
2019-02-02T05:47:44.283Z,13.27
2019-02-02T05:50:17.664Z,13.72
2019-02-02T05:52:46.171Z,20.37
2019-02-02T05:55:16.402Z,21.05
2019-02-02T05:57:44.934Z,15.48
2019-02-02T06:00:19.075Z,21.75
2019-02-02T06:02:47.544Z,13.78
2019-02-02T06:05:16.076Z,14.63
2019-02-02T06:07:44.600Z,13.62
2019-02-02T06:10:16.000Z,14.53
2019-02-02T06:12:44.468Z,13.28
2019-02-02T06:15:12.968Z,12.07
2019-02-02T06:17:41.444Z,12.15
2019-02-02T06:20:14.259Z,13.72
2019-02-02T06:22:42.767Z,12.73
2019-02-02T06:25:13.858Z,14.43
2019-02-02T06:27:42.316Z,14.07
2019-02-02T06:30:16.649Z,14.85
2019-02-02T06:32:45.190Z,14.43
2019-02-02T06:35:14.315Z,14.00
2019-02-02T06:37:42.816Z,15.05
2019-02-02T06:40:13.178Z,16.12
2019-02-02T06:42:41.632Z,14.38
2019-02-02T06:45:19.108Z,15.45
2019-02-02T06:47:47.589Z,13.13
2019-02-02T06:50:17.224Z,14.23
2019-02-02T06:52:45.805Z,13.68
2019-02-02T06:55:18.033Z,12.65
2019-02-02T06:57:46.429Z,15.83
2019-02-02T07:00:19.779Z,16.10
2019-02-02T07:02:49.091Z,12.75
2019-02-02T07:05:17.520Z,11.43
2019-02-02T07:07:46.686Z,13.22
2019-02-02T07:10:18.416Z,12.58
2019-02-02T07:12:46.883Z,13.68
2019-02-02T07:15:18.672Z,14.33
2019-02-02T07:17:47.069Z,13.83
2019-02-02T07:20:15.483Z,15.03
2019-02-02T07:22:43.943Z,13.98
2019-02-02T07:25:18.928Z,13.72
2019-02-02T07:27:47.591Z,15.65
2019-02-02T07:30:29.645Z,13.45
2019-02-02T07:32:55.716Z,11.33
2019-02-02T07:35:24.213Z,11.75
2019-02-02T07:37:52.827Z,12.73
2019-02-02T07:40:22.016Z,11.00
2019-02-02T07:42:50.556Z,12.10
2019-02-02T07:45:30.409Z,12.35
2019-02-02T07:47:58.891Z,13.28
2019-02-02T07:50:27.461Z,17.45
2019-02-02T07:52:55.970Z,15.00
2019-02-02T07:55:24.537Z,13.18
2019-02-02T07:57:52.945Z,14.23
2019-02-02T08:00:40.251Z,13.83
2019-02-02T08:03:06.956Z,16.82
2019-02-02T08:05:36.304Z,22.70
2019-02-02T08:08:05.149Z,16.62
2019-02-02T08:10:33.562Z,16.70
2019-02-02T08:13:02.157Z,17.95
2019-02-02T08:15:32.790Z,17.75
2019-02-02T08:18:01.266Z,20.05
2019-02-02T08:20:29.833Z,15.45
2019-02-02T08:22:58.301Z,13.20
2019-02-02T08:25:26.800Z,12.00
2019-02-02T08:27:55.676Z,14.25
2019-02-02T08:30:29.944Z,12.90
2019-02-02T08:32:58.325Z,12.03
2019-02-02T08:35:26.786Z,10.10
2019-02-02T08:37:55.175Z,12.47
2019-02-02T08:40:23.580Z,13.68
2019-02-02T08:42:52.156Z,15.78
2019-02-02T08:45:20.661Z,12.63
2019-02-02T08:47:49.309Z,14.00
2019-02-02T08:50:26.350Z,16.80
2019-02-02T08:52:54.836Z,15.93
2019-02-02T08:55:23.354Z,13.65
2019-02-02T08:57:51.881Z,14.33
2019-02-02T09:00:21.499Z,15.58
2019-02-02T09:02:49.925Z,12.28
2019-02-02T09:05:20.494Z,10.45
2019-02-02T09:07:50.612Z,11.80
2019-02-02T09:10:21.165Z,17.42
2019-02-02T09:12:49.762Z,18.05
2019-02-02T09:15:19.203Z,13.83
2019-02-02T09:17:47.780Z,12.98
2019-02-02T09:20:16.343Z,13.65
2019-02-02T09:22:45.512Z,11.65
2019-02-02T09:25:16.636Z,15.23
2019-02-02T09:27:45.047Z,15.88
2019-02-02T09:30:25.629Z,15.55
2019-02-02T09:32:54.197Z,12.63
2019-02-02T09:35:22.592Z,13.05
2019-02-02T09:37:52.930Z,13.62
2019-02-02T09:40:21.406Z,11.28
2019-02-02T09:42:50.004Z,10.75
2019-02-02T09:45:21.024Z,11.80
2019-02-02T09:47:49.596Z,16.32
2019-02-02T09:50:20.036Z,13.85
2019-02-02T09:52:54.303Z,11.53
2019-02-02T09:55:26.521Z,14.90
2019-02-02T09:57:58.066Z,12.60
2019-02-02T10:00:28.428Z,15.33
2019-02-02T10:02:57.177Z,13.30
2019-02-02T10:05:26.088Z,13.30
2019-02-02T10:07:55.851Z,12.03
2019-02-02T10:10:32.101Z,11.43
2019-02-02T10:13:00.782Z,11.55
2019-02-02T10:15:29.297Z,15.28
2019-02-02T10:17:57.836Z,14.15
2019-02-02T10:20:33.745Z,12.13
2019-02-02T10:23:02.171Z,15.55
2019-02-02T10:25:33.915Z,11.15
2019-02-02T10:28:02.509Z,11.70
2019-02-02T10:30:36.049Z,11.93
2019-02-02T10:33:05.011Z,12.25
2019-02-02T10:35:42.564Z,11.60
2019-02-02T10:38:14.022Z,13.50
2019-02-02T10:40:42.491Z,14.13
2019-02-02T10:43:10.931Z,12.82
2019-02-02T10:45:39.627Z,12.03
2019-02-02T10:48:08.029Z,13.20
2019-02-02T10:50:36.859Z,14.55
2019-02-02T10:53:05.341Z,13.72
2019-02-02T10:55:35.480Z,14.18
2019-02-02T10:58:04.392Z,12.95
2019-02-02T11:00:38.266Z,12.95
2019-02-02T11:03:06.855Z,11.70
2019-02-02T11:05:35.443Z,14.98
2019-02-02T11:08:05.238Z,12.13
2019-02-02T11:10:34.971Z,12.33
2019-02-02T11:13:03.707Z,12.70
2019-02-02T11:15:32.208Z,12.00
2019-02-02T11:18:01.991Z,12.63
2019-02-02T11:20:33.018Z,13.45
2019-02-02T11:23:04.908Z,13.20
2019-02-02T11:25:33.267Z,12.03
2019-02-02T11:28:01.717Z,13.88
2019-02-02T11:30:30.313Z,15.88
2019-02-02T11:32:58.657Z,11.40
2019-02-02T11:35:27.195Z,14.58
2019-02-02T11:37:55.703Z,14.70
2019-02-02T11:40:28.874Z,15.10
2019-02-02T11:42:57.402Z,14.78
2019-02-02T11:45:25.890Z,15.20
2019-02-02T11:47:54.288Z,15.38
2019-02-02T11:50:23.628Z,17.23
2019-02-02T11:52:52.154Z,11.85
2019-02-02T11:55:28.300Z,12.45
2019-02-02T11:57:56.715Z,16.50
2019-02-02T12:00:33.301Z,13.32
2019-02-02T12:03:04.392Z,14.23
2019-02-02T12:05:31.815Z,14.35
2019-02-02T12:08:00.236Z,13.32
2019-02-02T12:10:30.569Z,13.40
2019-02-02T12:12:59.124Z,14.83
2019-02-02T12:15:28.462Z,15.40
2019-02-02T12:17:57.005Z,12.00
2019-02-02T12:20:25.789Z,12.88
2019-02-02T12:22:54.264Z,10.72
2019-02-02T12:25:22.692Z,12.63
2019-02-02T12:27:51.167Z,14.30
2019-02-02T12:30:33.389Z,12.90
2019-02-02T12:33:03.405Z,14.68
2019-02-02T12:35:31.820Z,11.48
2019-02-02T12:38:00.329Z,12.35
2019-02-02T12:40:28.876Z,15.03
2019-02-02T12:42:57.266Z,14.40
2019-02-02T12:45:37.802Z,11.85
2019-02-02T12:48:06.328Z,10.98
2019-02-02T12:50:34.797Z,15.63
2019-02-02T12:53:03.359Z,13.70
2019-02-02T12:55:31.763Z,10.82
2019-02-02T12:58:00.153Z,11.70
2019-02-02T13:00:28.736Z,11.83
2019-02-02T13:02:57.233Z,12.60
2019-02-02T13:05:25.718Z,11.70
2019-02-02T13:07:54.219Z,10.65
2019-02-02T13:10:25.941Z,11.03
2019-02-02T13:12:54.806Z,10.28
2019-02-02T13:15:23.290Z,10.40
2019-02-02T13:17:52.774Z,9.55
2019-02-02T13:20:21.244Z,11.50
2019-02-02T13:22:49.817Z,11.53
2019-02-02T13:25:24.521Z,9.98
2019-02-02T13:28:03.775Z,11.03
2019-02-02T13:30:34.106Z,11.30
2019-02-02T13:33:02.521Z,10.53
2019-02-02T13:35:33.557Z,10.10
2019-02-02T13:38:01.953Z,11.00
2019-02-02T13:40:30.353Z,12.00
2019-02-02T13:43:18.216Z,10.38
2019-02-02T13:45:46.748Z,10.68
2019-02-02T13:48:15.208Z,9.55
2019-02-02T13:50:43.684Z,14.15
2019-02-02T13:53:12.063Z,12.88
2019-02-02T13:55:41.124Z,12.88
2019-02-02T13:58:09.555Z,12.70
2019-02-02T14:00:37.943Z,15.45
2019-02-02T14:03:06.434Z,17.85
2019-02-02T14:05:34.879Z,9.53
2019-02-02T14:08:03.352Z,13.00
2019-02-02T14:10:33.590Z,12.03
2019-02-02T14:13:02.034Z,10.50
2019-02-02T14:15:30.445Z,12.13
2019-02-02T14:17:59.000Z,10.95
2019-02-02T14:20:28.296Z,10.88
2019-02-02T14:22:56.856Z,10.60
2019-02-02T14:25:25.316Z,9.85
2019-02-02T14:27:53.821Z,12.85
2019-02-02T14:30:23.951Z,9.38
2019-02-02T14:32:54.682Z,13.53
2019-02-02T14:35:24.916Z,11.75
2019-02-02T14:37:53.328Z,14.50
2019-02-02T14:40:21.948Z,13.60
2019-02-02T14:42:50.357Z,15.05
2019-02-02T14:45:20.594Z,11.90
2019-02-02T14:47:49.167Z,14.55
2019-02-02T14:50:19.400Z,16.37
2019-02-02T14:52:48.290Z,18.82
2019-02-02T14:55:18.933Z,12.53
2019-02-02T14:57:47.385Z,11.25
2019-02-02T15:00:24.615Z,12.90
2019-02-02T15:02:53.076Z,14.25
2019-02-02T15:05:22.013Z,9.98
2019-02-02T15:07:50.556Z,12.18
2019-02-02T15:10:19.960Z,13.18
2019-02-02T15:12:48.433Z,13.78
2019-02-02T15:15:17.556Z,16.93
2019-02-02T15:17:46.065Z,13.55
2019-02-02T15:20:23.441Z,22.37
2019-02-02T15:22:52.781Z,12.35
2019-02-02T15:25:21.184Z,16.80
2019-02-02T15:27:49.663Z,23.65
2019-02-02T15:30:23.598Z,11.63
2019-02-02T15:32:52.033Z,14.75
2019-02-02T15:35:20.561Z,15.40
2019-02-02T15:37:49.010Z,12.47
2019-02-02T15:40:18.547Z,19.50
2019-02-02T15:42:47.032Z,13.15
2019-02-02T15:45:21.072Z,15.15
2019-02-02T15:47:49.558Z,19.52
2019-02-02T15:50:17.949Z,13.95
2019-02-02T15:53:05.873Z,10.60
2019-02-02T15:55:34.272Z,15.48
2019-02-02T15:58:02.742Z,13.72
2019-02-02T16:00:36.127Z,10.23
2019-02-02T16:03:04.969Z,11.03
2019-02-02T16:05:34.398Z,10.43
2019-02-02T16:08:05.958Z,10.03
2019-02-02T16:10:34.348Z,10.83
2019-02-02T16:13:02.758Z,11.60
2019-02-02T16:15:34.133Z,12.30
2019-02-02T16:18:01.306Z,18.95
2019-02-02T16:20:32.578Z,17.35
2019-02-02T16:23:01.178Z,12.55
2019-02-02T16:25:29.719Z,12.37
2019-02-02T16:27:58.106Z,11.15
2019-02-02T16:30:28.290Z,12.15
2019-02-02T16:32:56.755Z,12.95
2019-02-02T16:35:25.360Z,14.30
2019-02-02T16:37:53.891Z,14.78
2019-02-02T16:40:24.884Z,14.13
2019-02-02T16:42:53.881Z,14.78
2019-02-02T16:45:24.931Z,10.98
2019-02-02T16:47:53.601Z,13.43
2019-02-02T16:50:22.133Z,12.73
2019-02-02T16:52:50.768Z,15.03
2019-02-02T16:55:19.632Z,15.28
2019-02-02T16:57:48.116Z,16.70
2019-02-02T17:00:19.416Z,15.65
2019-02-02T17:02:47.887Z,14.35
2019-02-02T17:05:16.297Z,12.40
2019-02-02T17:07:46.394Z,15.03
2019-02-02T17:10:17.629Z,13.03
2019-02-02T17:12:46.260Z,13.78
2019-02-02T17:15:14.684Z,16.45
2019-02-02T17:17:43.158Z,17.65
2019-02-02T17:20:20.188Z,16.77
2019-02-02T17:22:48.579Z,13.95
2019-02-02T17:25:18.628Z,19.62
2019-02-02T17:27:48.023Z,15.70
2019-02-02T17:30:24.428Z,14.40
2019-02-02T17:32:54.697Z,13.95
2019-02-02T17:35:23.165Z,13.75
2019-02-02T17:37:51.677Z,16.00
2019-02-02T17:40:25.574Z,16.87
2019-02-02T17:42:53.981Z,12.53
2019-02-02T17:45:23.327Z,14.07
2019-02-02T17:47:51.833Z,13.53
2019-02-02T17:50:27.635Z,13.95
2019-02-02T17:52:56.132Z,11.00
2019-02-02T17:55:24.604Z,11.10
2019-02-02T17:57:53.047Z,12.95
2019-02-02T18:00:53.395Z,12.35
2019-02-02T18:03:21.964Z,14.28
2019-02-02T18:05:50.446Z,18.27
2019-02-02T18:08:19.037Z,16.65
2019-02-02T18:10:47.515Z,15.53
2019-02-02T18:13:15.998Z,12.93
2019-02-02T18:15:44.416Z,14.50
2019-02-02T18:18:12.952Z,13.65
2019-02-02T18:20:41.299Z,12.33
2019-02-02T18:23:09.807Z,12.53
2019-02-02T18:25:38.292Z,14.38
2019-02-02T18:28:06.837Z,17.42
2019-02-02T18:30:36.228Z,15.95
2019-02-02T18:33:04.623Z,15.80
2019-02-02T18:35:33.086Z,17.25
2019-02-02T18:38:01.538Z,18.50
2019-02-02T18:40:29.985Z,18.95
2019-02-02T18:42:58.461Z,17.67
2019-02-02T18:45:28.034Z,17.48
2019-02-02T18:47:56.456Z,18.57
2019-02-02T18:50:24.927Z,15.78
2019-02-02T18:52:58.171Z,21.48
2019-02-02T18:55:35.285Z,16.52
2019-02-02T18:58:03.880Z,17.00
2019-02-02T19:00:32.410Z,18.40
2019-02-02T19:03:00.810Z,16.25
2019-02-02T19:05:29.441Z,18.40
2019-02-02T19:07:57.918Z,18.92
2019-02-02T19:10:32.270Z,17.42
2019-02-02T19:13:00.711Z,16.37
2019-02-02T19:15:29.316Z,18.57
2019-02-02T19:17:57.788Z,16.37
2019-02-02T19:20:32.145Z,16.82
2019-02-02T19:23:00.645Z,18.00
2019-02-02T19:25:29.108Z,19.60
2019-02-02T19:27:57.547Z,16.87
2019-02-02T19:30:33.320Z,18.07
2019-02-02T19:33:02.761Z,19.23
2019-02-02T19:35:31.235Z,17.45
2019-02-02T19:37:59.798Z,17.52
2019-02-02T19:40:29.121Z,16.67
2019-02-02T19:42:57.522Z,18.57
2019-02-02T19:45:27.348Z,18.52
2019-02-02T19:47:57.571Z,18.23
2019-02-02T19:50:27.563Z,17.82
2019-02-02T19:52:58.716Z,18.90
2019-02-02T19:55:27.256Z,20.65
2019-02-02T19:57:57.304Z,19.35
2019-02-02T20:00:45.155Z,19.65
2019-02-02T20:03:13.656Z,21.15
2019-02-02T20:05:42.125Z,18.57
2019-02-02T20:08:10.569Z,20.00
2019-02-02T20:10:39.068Z,24.82
2019-02-02T20:13:07.533Z,23.47
2019-02-02T20:15:35.964Z,21.33
2019-02-02T20:18:09.913Z,20.30
2019-02-02T20:20:34.648Z,21.15
2019-02-02T20:23:04.463Z,19.57
2019-02-02T20:25:32.859Z,19.17
2019-02-02T20:28:01.270Z,16.32
2019-02-02T20:30:31.508Z,19.15
2019-02-02T20:32:59.897Z,20.52
2019-02-02T20:35:39.730Z,19.87
2019-02-02T20:37:58.674Z,18.32
2019-02-02T20:40:27.909Z,17.92
2019-02-02T20:42:56.445Z,19.20
2019-02-02T20:45:38.313Z,18.45
2019-02-02T20:48:06.720Z,19.50
2019-02-02T20:50:35.207Z,18.75
2019-02-02T20:53:03.697Z,20.20
2019-02-02T20:55:35.035Z,18.12
2019-02-02T20:58:03.429Z,19.60
2019-02-02T21:00:32.359Z,20.50
2019-02-02T21:03:00.808Z,21.77
2019-02-02T21:05:31.747Z,20.60
2019-02-02T21:07:59.468Z,19.48
2019-02-02T21:10:28.030Z,25.57
2019-02-02T21:12:56.549Z,22.55
2019-02-02T21:15:24.976Z,17.30
2019-02-02T21:17:53.544Z,18.95
2019-02-02T21:20:29.892Z,19.52
2019-02-02T21:22:59.518Z,19.37
2019-02-02T21:25:27.955Z,20.72
2019-02-02T21:27:56.441Z,20.45
2019-02-02T21:30:30.281Z,20.30
2019-02-02T21:32:58.752Z,18.25
2019-02-02T21:35:27.167Z,18.00
2019-02-02T21:37:55.629Z,21.17
2019-02-02T21:40:26.727Z,21.10
2019-02-02T21:42:55.238Z,20.30
2019-02-02T21:45:23.748Z,20.25
2019-02-02T21:47:52.537Z,20.20
2019-02-02T21:50:25.103Z,21.12
2019-02-02T21:52:54.208Z,20.88
2019-02-02T21:55:24.588Z,20.80
2019-02-02T21:57:53.012Z,18.70
2019-02-02T22:00:24.124Z,19.82
2019-02-02T22:02:52.600Z,21.93
2019-02-02T22:05:21.089Z,20.37
2019-02-02T22:07:49.564Z,20.57
2019-02-02T22:10:18.049Z,20.62
2019-02-02T22:12:46.480Z,19.80
2019-02-02T22:15:17.988Z,19.62
2019-02-02T22:17:46.676Z,20.37
2019-02-02T22:20:16.640Z,19.73
2019-02-02T22:22:45.111Z,20.55
2019-02-02T22:25:22.755Z,18.85
2019-02-02T22:27:51.147Z,19.25
2019-02-02T22:30:21.791Z,19.20
2019-02-02T22:32:50.360Z,19.37
2019-02-02T22:35:18.759Z,20.12
2019-02-02T22:37:47.160Z,18.40
2019-02-02T22:40:23.733Z,18.80
2019-02-02T22:42:52.200Z,20.17
2019-02-02T22:45:21.512Z,20.68
2019-02-02T22:47:50.481Z,21.50
2019-02-02T22:50:20.676Z,20.55
2019-02-02T22:52:49.165Z,20.97
2019-02-02T22:55:22.456Z,18.35
2019-02-02T22:57:50.974Z,21.80
2019-02-02T23:00:47.986Z,20.92
2019-02-02T23:03:36.371Z,19.57
2019-02-02T23:06:13.824Z,20.32
2019-02-02T23:08:48.359Z,21.37
2019-02-02T23:11:25.573Z,19.70
2019-02-02T23:14:09.065Z,22.93
2019-02-02T23:16:37.772Z,21.17
2019-02-02T23:19:06.192Z,21.60
2019-02-02T23:21:34.769Z,20.72
2019-02-02T23:24:03.268Z,20.43
2019-02-02T23:26:31.742Z,20.23
2019-02-02T23:29:00.219Z,20.55
2019-02-02T23:31:28.710Z,20.62
2019-02-02T23:33:57.348Z,21.62
2019-02-02T23:36:25.728Z,21.50
2019-02-02T23:38:54.230Z,22.42
2019-02-02T23:41:22.764Z,20.05
2019-02-02T23:43:51.317Z,21.65
2019-02-02T23:46:19.821Z,20.45
2019-02-02T23:48:48.488Z,20.30
2019-02-02T23:51:16.873Z,20.20
2019-02-02T23:53:45.444Z,21.52
2019-02-02T23:56:13.855Z,20.90
2019-02-02T23:58:42.768Z,22.37
